메인 페이지
METAR-TAF:

METAR-TAF

공항 :

쿤밍, 중국

쿤밍 창수이 국제공항

위도: 25-01N, 경도: 102-41E, 고도: 1892m

현재 날씨관측

예보는 58분 전, 00:00시(UTC)에 발표되었습니다.
남남서8kt
온도 5°C
습도 81%
기압 1020 hPa
시정 10km 이상
1500m 미만 상공 구름 및 적란운 없음

METAR: ZPPP 180000Z 20004MPS CAVOK 05/02 Q1020 NOSIG

시각: 08:58 (00:58 UTC)

예보

예보는 5 시간 48분 전, 19:10시(UTC)에 발표되었습니다.
예보 대상 시간: 18일 00시부터 18일 24시까지 (UTC)
남서10kt
시정 10km 이상
1500m 미만 상공 구름 및 적란운 없음
전환 중
18일 03시부터 18일 04시까지 (UTC)
남서19kt, 순간 최대 풍속 29kt
전환 중
18일 11시부터 18일 12시까지 (UTC)
남서10kt

TAF: ZPPP 171910Z 1800/1824 22005MPS CAVOK TX21/1808Z TN06/1823Z BECMG 1803/1804 22010G15MPS BECMG 1811/1812 22005MPS

4,000개 이상의 공항 관측 자료 및 예보 (METAR 및 TAF 보고).

지도상에서 검색 가능한 기상관측소가 노란 점과 빨간 점으로 표시되어 있습니다.

기상관측소 명을 보려면 표시 위로 마우스를 이동하세요.

날씨 관측과 예보를 보려면 클릭하세요.

지도 변경 : 확대하려면 엑스 표시가 있는 녹색 버튼, 축소하려면 빼기 표시가 있는 녹색 버튼, 다음 페이지의 지도를 보려면 녹색 화살표를 클릭하세요.


METAR-TAF: